< < Back
Terminal Aerodrome Forecast


Current Version              Previous Versions:   1  2  3  4  5  6  7  8  9  

Terminal Aerodrome Forecast

493
FTUS42 KTAE 090902 AAA
TAFTLH
TAF AMD
KTLH 090902Z 0909/1006 28008KT P6SM SKC
     FM091500 28016G26KT P6SM FEW250
     FM092300 29010KT P6SM SKC=



Latest METAR

083
SAUS80 KWBC 091000
MTRTLH
METAR KTLH 090953Z AUTO 25005KT 10SM CLR 03/M04 A2999 RMK AO2 SLP155
T00281044


USA.gov is the U.S. government's official web portal to all federal, state and local government web resources and services.